createdAt,value
2018-08-20T00:01:46.311Z,101091.55
2018-08-20T00:04:16.365Z,101094.88
2018-08-20T00:06:53.437Z,101095.07
2018-08-20T00:09:34.031Z,101095.95
2018-08-20T00:12:04.241Z,101096.27
2018-08-20T00:14:33.679Z,101095.17
2018-08-20T00:17:03.533Z,101104.14
2018-08-20T00:19:33.885Z,101101.75
2018-08-20T00:22:03.451Z,101098.88
2018-08-20T00:24:33.564Z,101093.31
2018-08-20T00:27:03.760Z,101090.92
2018-08-20T00:29:37.241Z,101087.69
2018-08-20T00:32:07.083Z,101095.55
2018-08-20T00:34:37.339Z,101087.77
2018-08-20T00:37:06.908Z,101089.16
2018-08-20T00:39:36.414Z,101085.19
2018-08-20T00:42:06.241Z,101079.94
2018-08-20T00:44:36.562Z,101072.83
2018-08-20T00:47:05.893Z,101075.53
2018-08-20T00:49:35.319Z,101078.92
2018-08-20T00:52:04.666Z,101080.28
2018-08-20T00:54:33.956Z,101080.34
2018-08-20T00:57:03.463Z,101074.45
2018-08-20T00:59:33.228Z,101074.61
2018-08-20T01:02:02.679Z,101076.30
2018-08-20T01:04:32.204Z,101070.55
2018-08-20T01:07:01.967Z,101067.90
2018-08-20T01:09:31.432Z,101070.09
2018-08-20T01:12:01.009Z,101071.64
2018-08-20T01:14:30.321Z,101070.31
2018-08-20T01:17:00.987Z,101066.43
2018-08-20T01:19:30.386Z,101063.44
2018-08-20T01:21:59.838Z,101064.30
2018-08-20T01:24:29.145Z,101061.44
2018-08-20T01:26:58.648Z,101055.22
2018-08-20T01:29:28.027Z,101060.93
2018-08-20T01:31:57.270Z,101060.64
2018-08-20T01:34:26.623Z,101057.95
2018-08-20T01:36:56.145Z,101057.27
2018-08-20T01:39:25.370Z,101054.90
2018-08-20T01:41:55.017Z,101054.55
2018-08-20T01:44:24.290Z,101057.21
2018-08-20T01:46:53.617Z,101061.59
2018-08-20T01:49:22.862Z,101065.91
2018-08-20T01:51:52.628Z,101062.08
2018-08-20T01:54:22.084Z,101058.02
2018-08-20T01:56:51.452Z,101059.00
2018-08-20T01:59:20.725Z,101058.92
2018-08-20T02:01:50.648Z,101048.86
2018-08-20T02:04:19.957Z,101051.72
2018-08-20T02:06:50.586Z,101051.72
2018-08-20T02:09:19.913Z,101045.30
2018-08-20T02:11:49.227Z,101056.12
2018-08-20T02:14:19.026Z,101058.80
2018-08-20T02:16:48.386Z,101046.25
2018-08-20T02:19:17.753Z,101049.61
2018-08-20T02:21:47.753Z,101047.47
2018-08-20T02:24:17.046Z,101046.91
2018-08-20T02:26:46.370Z,101047.13
2018-08-20T02:29:15.853Z,101047.13
2018-08-20T02:31:45.190Z,101041.50
2018-08-20T02:34:14.397Z,101044.77
2018-08-20T02:36:43.867Z,101044.27
2018-08-20T02:39:14.505Z,101049.61
2018-08-20T02:41:44.223Z,101041.16
2018-08-20T02:44:13.603Z,101044.70
2018-08-20T02:46:49.704Z,101042.84
2018-08-20T02:49:19.346Z,101045.21
2018-08-20T02:51:50.324Z,101038.10
2018-08-20T02:54:19.652Z,101039.98
2018-08-20T02:56:48.967Z,101035.48
2018-08-20T02:59:18.515Z,101036.49
2018-08-20T03:01:47.921Z,101033.63
2018-08-20T03:04:17.194Z,101039.73
2018-08-20T03:06:46.528Z,101034.13
2018-08-20T03:09:17.013Z,101034.13
2018-08-20T03:11:46.312Z,101034.13
2018-08-20T03:14:15.591Z,101028.05
2018-08-20T03:16:44.960Z,101019.25
2018-08-20T03:19:14.252Z,101027.20
2018-08-20T03:21:43.581Z,101025.10
2018-08-20T03:24:13.102Z,101014.76
2018-08-20T03:26:42.335Z,101017.78
2018-08-20T03:29:11.770Z,101020.48
2018-08-20T03:31:40.952Z,101013.72
2018-08-20T03:34:10.216Z,101013.72
2018-08-20T03:36:39.594Z,101013.72
2018-08-20T03:39:09.131Z,101013.41
2018-08-20T03:41:39.721Z,101009.34
2018-08-20T03:44:09.441Z,101009.53
2018-08-20T03:46:38.935Z,101011.06
2018-08-20T03:49:08.241Z,101009.03
2018-08-20T03:51:37.517Z,101005.53
2018-08-20T03:54:06.972Z,101008.42
2018-08-20T03:56:36.267Z,101006.41
2018-08-20T03:59:06.025Z,101007.76
2018-08-20T04:01:35.529Z,101013.52
2018-08-20T04:04:04.996Z,101002.69
2018-08-20T04:06:34.552Z,101005.73
2018-08-20T04:09:04.877Z,101002.87
2018-08-20T04:11:34.591Z,100998.31
2018-08-20T04:14:04.311Z,101002.24
2018-08-20T04:16:33.703Z,100999.19
2018-08-20T04:19:06.483Z,101003.94
2018-08-20T04:21:36.406Z,101006.48
2018-08-20T04:24:06.229Z,101010.89
2018-08-20T04:26:35.664Z,101000.38
2018-08-20T04:29:05.281Z,101002.24
2018-08-20T04:31:34.708Z,101007.84
2018-08-20T04:34:04.543Z,101011.58
2018-08-20T04:36:33.887Z,101008.37
2018-08-20T04:39:05.134Z,101010.06
2018-08-20T04:41:40.332Z,101018.53
2018-08-20T04:44:18.635Z,101020.05
2018-08-20T04:47:01.378Z,101023.58
2018-08-20T04:49:43.169Z,101020.52
2018-08-20T04:52:12.532Z,101025.03
2018-08-20T04:54:41.837Z,101026.04
2018-08-20T04:57:11.645Z,101027.45
2018-08-20T04:59:41.123Z,101031.19
2018-08-20T05:02:11.107Z,101033.92
2018-08-20T05:04:40.753Z,101033.58
2018-08-20T05:07:10.461Z,101040.53
2018-08-20T05:09:40.242Z,101036.34
2018-08-20T05:12:10.238Z,101038.55
2018-08-20T05:14:40.625Z,101042.77
2018-08-20T05:17:10.858Z,101037.35
2018-08-20T05:19:40.128Z,101038.03
2018-08-20T05:22:09.518Z,101039.07
2018-08-20T05:24:39.096Z,101042.09
2018-08-20T05:27:08.853Z,101041.09
2018-08-20T05:29:38.313Z,101044.48
2018-08-20T05:32:08.026Z,101037.72
2018-08-20T05:34:37.437Z,101042.30
2018-08-20T05:37:07.129Z,101038.48
2018-08-20T05:39:36.823Z,101038.32
2018-08-20T05:42:06.440Z,101034.84
2018-08-20T05:44:36.301Z,101038.91
2018-08-20T05:47:06.193Z,101039.77
2018-08-20T05:49:35.752Z,101055.84
2018-08-20T05:52:05.502Z,101054.83
2018-08-20T05:54:35.109Z,101051.43
2018-08-20T05:57:04.846Z,101063.96
2018-08-20T05:59:34.200Z,101060.75
2018-08-20T06:02:03.833Z,101063.27
2018-08-20T06:04:33.154Z,101065.31
2018-08-20T06:07:02.642Z,101069.11
2018-08-20T06:09:32.676Z,101073.91
2018-08-20T06:12:02.318Z,101081.24
2018-08-20T06:14:31.749Z,101080.57
2018-08-20T06:17:01.239Z,101080.06
2018-08-20T06:19:30.610Z,101085.84
2018-08-20T06:22:00.080Z,101085.73
2018-08-20T06:24:29.447Z,101082.50
2018-08-20T06:26:58.808Z,101086.09
2018-08-20T06:29:28.307Z,101085.64
2018-08-20T06:31:57.998Z,101095.19
2018-08-20T06:34:27.213Z,101098.26
2018-08-20T06:36:56.656Z,101104.02
2018-08-20T06:39:26.071Z,101100.69
2018-08-20T06:41:55.350Z,101108.13
2018-08-20T06:44:24.808Z,101113.09
2018-08-20T06:46:54.175Z,101116.11
2018-08-20T06:49:23.518Z,101107.27
2018-08-20T06:51:52.787Z,101112.75
2018-08-20T06:54:22.323Z,101119.61
2018-08-20T06:56:51.644Z,101118.02
2018-08-20T06:59:21.519Z,101121.95
2018-08-20T07:01:51.233Z,101120.09
2018-08-20T07:04:21.029Z,101111.33
2018-08-20T07:06:50.340Z,101120.70
2018-08-20T07:09:19.769Z,101114.44
2018-08-20T07:11:49.244Z,101116.14
2018-08-20T07:14:29.757Z,101118.25
2018-08-20T07:16:59.248Z,101122.37
2018-08-20T07:19:28.600Z,101127.63
2018-08-20T07:21:58.267Z,101125.13
2018-08-20T07:24:27.536Z,101134.97
2018-08-20T07:26:56.800Z,101144.12
2018-08-20T07:29:41.006Z,101145.77
2018-08-20T07:32:12.213Z,101145.03
2018-08-20T07:34:43.820Z,101159.78
2018-08-20T07:37:14.472Z,101157.50
2018-08-20T07:39:46.198Z,101159.86
2018-08-20T07:42:15.567Z,101159.19
2018-08-20T07:44:45.456Z,101156.90
2018-08-20T07:47:15.483Z,101153.02
2018-08-20T07:49:44.803Z,101159.17
2018-08-20T07:52:14.290Z,101162.77
2018-08-20T07:54:43.857Z,101163.55
2018-08-20T07:57:13.204Z,101163.66
2018-08-20T07:59:42.586Z,101164.22
2018-08-20T08:02:12.184Z,101172.37
2018-08-20T08:04:41.799Z,101172.48
2018-08-20T08:07:11.838Z,101170.27
2018-08-20T08:09:41.236Z,101179.27
2018-08-20T08:12:10.754Z,101182.97
2018-08-20T08:14:40.132Z,101208.38
2018-08-20T08:17:09.861Z,101213.53
2018-08-20T08:19:39.246Z,101218.42
2018-08-20T08:22:08.884Z,101212.68
2018-08-20T08:24:38.741Z,101217.09
2018-08-20T08:27:08.398Z,101215.84
2018-08-20T08:29:37.911Z,101223.80
2018-08-20T08:32:07.502Z,101219.87
2018-08-20T08:34:37.810Z,101218.61
2018-08-20T08:37:08.037Z,101224.97
2018-08-20T08:39:38.724Z,101228.98
2018-08-20T08:42:08.353Z,101235.02
2018-08-20T08:44:38.124Z,101235.62
2018-08-20T08:47:07.965Z,101250.96
2018-08-20T08:49:37.818Z,101250.67
2018-08-20T08:52:07.496Z,101247.37
2018-08-20T08:54:37.307Z,101257.37
2018-08-20T08:57:07.064Z,101250.70
2018-08-20T08:59:36.543Z,101260.52
2018-08-20T09:02:06.337Z,101263.09
2018-08-20T09:04:35.757Z,101264.37
2018-08-20T09:07:05.752Z,101273.63
2018-08-20T09:09:35.201Z,101281.14
2018-08-20T09:12:04.721Z,101287.55
2018-08-20T09:14:34.101Z,101285.47
2018-08-20T09:17:03.517Z,101285.73
2018-08-20T09:19:33.129Z,101300.72
2018-08-20T09:22:02.945Z,101301.86
2018-08-20T09:24:32.397Z,101302.53
2018-08-20T09:27:01.886Z,101291.36
2018-08-20T09:29:31.303Z,101295.19
2018-08-20T09:32:01.109Z,101292.89
2018-08-20T09:34:30.607Z,101300.20
2018-08-20T09:37:00.825Z,101298.16
2018-08-20T09:39:31.194Z,101302.66
2018-08-20T09:42:00.709Z,101304.11
2018-08-20T09:44:30.416Z,101301.03
2018-08-20T09:46:59.809Z,101308.09
2018-08-20T09:49:30.049Z,101317.52
2018-08-20T09:51:59.715Z,101317.05
2018-08-20T09:54:29.041Z,101314.67
2018-08-20T09:56:58.404Z,101313.17
2018-08-20T09:59:27.736Z,101321.84
2018-08-20T10:01:57.053Z,101314.72
2018-08-20T10:04:26.428Z,101314.17
2018-08-20T10:06:55.728Z,101312.52
2018-08-20T10:09:25.042Z,101317.56
2018-08-20T10:11:55.331Z,101322.02
2018-08-20T10:14:24.945Z,101318.13
2018-08-20T10:16:54.373Z,101332.00
2018-08-20T10:19:23.679Z,101318.63
2018-08-20T10:21:54.240Z,101320.67
2018-08-20T10:24:23.510Z,101319.69
2018-08-20T10:26:52.906Z,101323.45
2018-08-20T10:29:22.306Z,101321.11
2018-08-20T10:31:51.602Z,101331.64
2018-08-20T10:34:20.934Z,101326.88
2018-08-20T10:36:50.481Z,101328.58
2018-08-20T10:39:19.917Z,101330.59
2018-08-20T10:41:49.435Z,101332.94
2018-08-20T10:44:18.764Z,101340.66
2018-08-20T10:46:48.028Z,101333.48
2018-08-20T10:49:17.442Z,101339.59
2018-08-20T10:51:46.764Z,101338.32
2018-08-20T10:54:16.362Z,101344.25
2018-08-20T10:56:45.839Z,101343.49
2018-08-20T10:59:15.441Z,101344.88
2018-08-20T11:01:44.849Z,101347.41
2018-08-20T11:04:14.349Z,101348.46
2018-08-20T11:06:44.124Z,101341.00
2018-08-20T11:09:13.975Z,101345.41
2018-08-20T11:11:43.394Z,101348.01
2018-08-20T11:14:13.135Z,101348.69
2018-08-20T11:16:42.610Z,101353.45
2018-08-20T11:19:12.321Z,101353.78
2018-08-20T11:21:42.066Z,101354.63
2018-08-20T11:24:11.696Z,101352.08
2018-08-20T11:26:41.364Z,101354.52
2018-08-20T11:29:11.205Z,101348.42
2018-08-20T11:31:41.136Z,101357.26
2018-08-20T11:34:10.863Z,101353.36
2018-08-20T11:36:40.524Z,101352.14
2018-08-20T11:39:10.199Z,101358.41
2018-08-20T11:41:40.234Z,101349.22
2018-08-20T11:44:10.218Z,101362.03
2018-08-20T11:46:40.125Z,101354.30
2018-08-20T11:49:10.140Z,101352.88
2018-08-20T11:51:39.365Z,101354.32
2018-08-20T11:54:08.781Z,101352.93
2018-08-20T11:56:38.555Z,101350.95
2018-08-20T11:59:08.061Z,101353.02
2018-08-20T12:01:37.769Z,101361.08
2018-08-20T12:04:07.174Z,101358.23
2018-08-20T12:06:36.623Z,101359.08
2018-08-20T12:09:07.446Z,101354.98
2018-08-20T12:11:36.828Z,101370.02
2018-08-20T12:14:06.288Z,101359.81
2018-08-20T12:16:35.794Z,101372.37
2018-08-20T12:19:05.721Z,101363.27
2018-08-20T12:21:35.205Z,101354.90
2018-08-20T12:24:05.288Z,101359.63
2018-08-20T12:26:35.902Z,101347.70
2018-08-20T12:29:05.927Z,101367.11
2018-08-20T12:31:35.281Z,101373.98
2018-08-20T12:34:05.248Z,101372.54
2018-08-20T12:36:34.907Z,101370.06
2018-08-20T12:39:05.413Z,101375.99
2018-08-20T12:41:34.950Z,101374.73
2018-08-20T12:44:04.823Z,101377.38
2018-08-20T12:46:34.286Z,101384.92
2018-08-20T12:49:04.557Z,101384.80
2018-08-20T12:51:34.068Z,101389.60
2018-08-20T12:54:03.662Z,101399.84
2018-08-20T12:56:33.295Z,101403.75
2018-08-20T12:59:02.738Z,101397.61
2018-08-20T13:01:32.471Z,101394.73
2018-08-20T13:04:02.591Z,101394.72
2018-08-20T13:06:33.351Z,101397.21
2018-08-20T13:09:03.301Z,101397.53
2018-08-20T13:11:32.863Z,101394.44
2018-08-20T13:14:02.919Z,101395.16
2018-08-20T13:16:32.499Z,101393.17
2018-08-20T13:19:01.941Z,101395.64
2018-08-20T13:21:31.504Z,101392.45
2018-08-20T13:24:01.362Z,101397.44
2018-08-20T13:26:30.852Z,101395.05
2018-08-20T13:29:00.912Z,101395.75
2018-08-20T13:31:31.339Z,101401.86
2018-08-20T13:34:00.775Z,101405.70
2018-08-20T13:36:31.389Z,101404.50
2018-08-20T13:39:01.070Z,101406.34
2018-08-20T13:41:30.469Z,101411.55
2018-08-20T13:43:59.858Z,101406.13
2018-08-20T13:46:29.044Z,101405.19
2018-08-20T13:48:58.523Z,101403.48
2018-08-20T13:51:27.949Z,101406.92
2018-08-20T13:53:57.558Z,101409.97
2018-08-20T13:56:26.916Z,101414.24
2018-08-20T13:58:56.873Z,101413.37
2018-08-20T14:01:26.384Z,101409.55
2018-08-20T14:03:56.760Z,101410.50
2018-08-20T14:06:26.056Z,101418.21
2018-08-20T14:08:55.738Z,101415.23
2018-08-20T14:11:25.014Z,101412.03
2018-08-20T14:13:56.057Z,101415.67
2018-08-20T14:16:25.281Z,101413.27
2018-08-20T14:18:55.494Z,101410.02
2018-08-20T14:21:24.877Z,101414.73
2018-08-20T14:23:54.100Z,101408.45
2018-08-20T14:26:23.306Z,101409.29
2018-08-20T14:28:52.670Z,101402.22
2018-08-20T14:31:22.207Z,101413.05
2018-08-20T14:33:51.542Z,101413.03
2018-08-20T14:36:20.845Z,101409.71
2018-08-20T14:38:50.048Z,101417.73
2018-08-20T14:41:19.346Z,101416.78
2018-08-20T14:43:48.717Z,101415.20
2018-08-20T14:46:22.992Z,101410.66
2018-08-20T14:48:54.487Z,101413.59
2018-08-20T14:51:23.761Z,101418.08
2018-08-20T14:53:53.193Z,101422.64
2018-08-20T14:56:22.650Z,101424.50
2018-08-20T14:58:52.800Z,101436.91
2018-08-20T15:01:23.289Z,101423.97
2018-08-20T15:03:52.682Z,101425.35
2018-08-20T15:06:21.984Z,101429.98
2018-08-20T15:08:51.403Z,101426.02
2018-08-20T15:11:20.761Z,101420.22
2018-08-20T15:13:50.034Z,101432.46
2018-08-20T15:16:20.133Z,101428.73
2018-08-20T15:18:50.301Z,101426.34
2018-08-20T15:21:20.221Z,101422.60
2018-08-20T15:23:49.583Z,101418.89
2018-08-20T15:26:19.176Z,101419.92
2018-08-20T15:28:48.401Z,101425.70
2018-08-20T15:31:18.053Z,101429.23
2018-08-20T15:33:47.321Z,101428.88
2018-08-20T15:36:16.605Z,101421.88
2018-08-20T15:38:46.236Z,101427.30
2018-08-20T15:41:15.639Z,101427.62
2018-08-20T15:43:44.895Z,101431.19
2018-08-20T15:46:14.334Z,101437.50
2018-08-20T15:48:43.613Z,101438.36
2018-08-20T15:51:12.870Z,101439.17
2018-08-20T15:53:42.278Z,101443.70
2018-08-20T15:56:11.927Z,101439.75
2018-08-20T15:58:41.245Z,101442.12
2018-08-20T16:01:10.887Z,101441.44
2018-08-20T16:03:40.420Z,101448.58
2018-08-20T16:06:09.966Z,101442.64
2018-08-20T16:08:39.603Z,101444.24
2018-08-20T16:11:09.103Z,101446.72
2018-08-20T16:13:39.079Z,101453.18
2018-08-20T16:16:09.011Z,101457.88
2018-08-20T16:18:38.487Z,101453.38
2018-08-20T16:21:07.980Z,101448.58
2018-08-20T16:23:37.718Z,101446.78
2018-08-20T16:26:07.171Z,101451.27
2018-08-20T16:28:36.849Z,101455.50
2018-08-20T16:31:06.219Z,101460.66
2018-08-20T16:33:35.706Z,101456.12
2018-08-20T16:36:05.313Z,101457.50
2018-08-20T16:38:35.049Z,101466.33
2018-08-20T16:41:04.797Z,101468.52
2018-08-20T16:43:34.420Z,101468.13
2018-08-20T16:46:04.765Z,101461.95
2018-08-20T16:48:34.565Z,101463.09
2018-08-20T16:51:04.522Z,101468.00
2018-08-20T16:53:34.167Z,101469.52
2018-08-20T16:56:03.966Z,101468.59
2018-08-20T16:58:33.468Z,101471.45
2018-08-20T17:01:04.326Z,101470.73
2018-08-20T17:03:34.099Z,101466.98
2018-08-20T17:06:03.760Z,101470.53
2018-08-20T17:08:34.698Z,101471.32
2018-08-20T17:11:04.453Z,101474.97
2018-08-20T17:13:33.869Z,101476.88
2018-08-20T17:16:03.676Z,101473.13
2018-08-20T17:18:33.215Z,101479.94
2018-08-20T17:21:02.645Z,101485.44
2018-08-20T17:23:35.542Z,101483.14
2018-08-20T17:26:05.750Z,101478.53
2018-08-20T17:28:35.111Z,101477.33
2018-08-20T17:31:12.860Z,101482.73
2018-08-20T17:33:43.193Z,101487.67
2018-08-20T17:36:12.518Z,101486.41
2018-08-20T17:38:42.028Z,101486.22
2018-08-20T17:41:11.555Z,101486.66
2018-08-20T17:43:41.216Z,101488.09
2018-08-20T17:46:10.773Z,101485.22
2018-08-20T17:48:41.240Z,101487.43
2018-08-20T17:51:11.709Z,101489.13
2018-08-20T17:53:53.501Z,101484.61
2018-08-20T17:56:22.930Z,101483.91
2018-08-20T17:58:59.491Z,101485.93
2018-08-20T18:01:29.021Z,101493.52
2018-08-20T18:03:58.375Z,101493.48
2018-08-20T18:06:43.381Z,101500.44
2018-08-20T18:09:15.154Z,101498.30
2018-08-20T18:11:51.609Z,101503.48
2018-08-20T18:14:23.369Z,101501.66
2018-08-20T18:16:53.488Z,101509.23
2018-08-20T18:19:24.076Z,101502.03
2018-08-20T18:21:53.846Z,101514.87
2018-08-20T18:24:23.418Z,101519.59
2018-08-20T18:26:54.611Z,101531.98
2018-08-20T18:29:23.932Z,101528.77
2018-08-20T18:31:53.788Z,101532.83
2018-08-20T18:34:23.224Z,101537.69
2018-08-20T18:36:52.554Z,101543.31
2018-08-20T18:39:22.024Z,101544.31
2018-08-20T18:41:57.769Z,101548.88
2018-08-20T18:44:27.272Z,101552.15
2018-08-20T18:46:56.891Z,101556.06
2018-08-20T18:49:26.394Z,101555.21
2018-08-20T18:52:13.396Z,101552.65
2018-08-20T18:54:51.637Z,101554.95
2018-08-20T18:57:23.680Z,101556.60
2018-08-20T18:59:53.688Z,101562.98
2018-08-20T19:03:01.505Z,101563.28
2018-08-20T19:05:44.726Z,101562.37
2018-08-20T19:08:26.181Z,101569.19
2018-08-20T19:10:56.661Z,101575.39
2018-08-20T19:13:26.921Z,101565.56
2018-08-20T19:15:56.572Z,101572.87
2018-08-20T19:18:33.472Z,101586.04
2018-08-20T19:21:02.801Z,101588.08
2018-08-20T19:23:32.057Z,101585.60
2018-08-20T19:26:01.645Z,101578.27
2018-08-20T19:28:32.284Z,101586.28
2018-08-20T19:31:01.594Z,101589.48
2018-08-20T19:33:32.078Z,101590.73
2018-08-20T19:36:01.507Z,101593.89
2018-08-20T19:38:30.745Z,101598.12
2018-08-20T19:41:05.529Z,101595.20
2018-08-20T19:43:54.559Z,101593.71
2018-08-20T19:46:32.110Z,101594.62
2018-08-20T19:49:06.749Z,101595.22
2018-08-20T19:51:37.778Z,101601.36
2018-08-20T19:54:08.478Z,101598.05
2018-08-20T19:56:38.408Z,101605.05
2018-08-20T19:59:07.829Z,101594.25
2018-08-20T20:01:37.313Z,101600.84
2018-08-20T20:04:06.731Z,101601.55
2018-08-20T20:06:36.193Z,101603.90
2018-08-20T20:09:08.573Z,101603.78
2018-08-20T20:11:45.719Z,101606.84
2018-08-20T20:14:15.489Z,101607.03
2018-08-20T20:16:50.539Z,101610.73
2018-08-20T20:19:20.500Z,101610.34
2018-08-20T20:21:49.989Z,101623.48
2018-08-20T20:24:19.551Z,101619.48
2018-08-20T20:26:48.876Z,101619.48
2018-08-20T20:29:18.475Z,101623.42
2018-08-20T20:31:47.996Z,101626.97
2018-08-20T20:34:17.993Z,101624.25
2018-08-20T20:36:47.786Z,101630.37
2018-08-20T20:39:17.418Z,101624.91
2018-08-20T20:41:47.306Z,101631.09
2018-08-20T20:44:16.947Z,101624.70
2018-08-20T20:46:46.626Z,101625.20
2018-08-20T20:49:16.247Z,101627.54
2018-08-20T20:51:46.001Z,101629.08
2018-08-20T20:54:15.553Z,101634.92
2018-08-20T20:56:45.501Z,101629.39
2018-08-20T20:59:15.384Z,101634.20
2018-08-20T21:01:45.417Z,101625.69
2018-08-20T21:04:15.125Z,101626.30
2018-08-20T21:06:44.748Z,101633.30
2018-08-20T21:09:14.592Z,101642.26
2018-08-20T21:11:44.164Z,101636.82
2018-08-20T21:14:14.434Z,101644.65
2018-08-20T21:16:44.058Z,101642.94
2018-08-20T21:19:13.724Z,101649.36
2018-08-20T21:21:43.644Z,101648.38
2018-08-20T21:24:13.332Z,101645.16
2018-08-20T21:26:42.990Z,101653.63
2018-08-20T21:29:12.557Z,101654.97
2018-08-20T21:31:47.463Z,101654.73
2018-08-20T21:34:17.329Z,101658.54
2018-08-20T21:36:46.879Z,101659.19
2018-08-20T21:39:16.399Z,101658.06
2018-08-20T21:41:46.309Z,101657.46
2018-08-20T21:44:15.803Z,101656.70
2018-08-20T21:46:45.569Z,101665.08
2018-08-20T21:49:15.168Z,101662.02
2018-08-20T21:51:49.953Z,101658.52
2018-08-20T21:54:23.849Z,101661.48
2018-08-20T21:56:54.237Z,101659.27
2018-08-20T21:59:23.595Z,101660.98
2018-08-20T22:01:52.973Z,101662.92
2018-08-20T22:04:23.034Z,101659.19
2018-08-20T22:06:52.465Z,101661.03
2018-08-20T22:09:21.818Z,101660.17
2018-08-20T22:11:55.810Z,101667.78
2018-08-20T22:14:25.463Z,101671.73
2018-08-20T22:16:54.781Z,101676.73
2018-08-20T22:19:24.345Z,101668.63
2018-08-20T22:21:53.785Z,101672.58
2018-08-20T22:24:23.166Z,101665.21
2018-08-20T22:26:56.571Z,101659.91
2018-08-20T22:29:33.571Z,101663.47
2018-08-20T22:32:05.042Z,101672.22
2018-08-20T22:34:34.434Z,101673.17
2018-08-20T22:37:05.881Z,101672.91
2018-08-20T22:39:35.355Z,101673.41
2018-08-20T22:42:04.842Z,101670.21
2018-08-20T22:44:34.219Z,101676.63
2018-08-20T22:47:03.742Z,101679.09
2018-08-20T22:49:33.242Z,101680.47
2018-08-20T22:52:02.528Z,101678.39
2018-08-20T22:54:31.917Z,101676.31
2018-08-20T22:57:01.290Z,101679.16
2018-08-20T22:59:30.542Z,101681.98
2018-08-20T23:02:00.005Z,101684.67
2018-08-20T23:04:29.340Z,101690.52
2018-08-20T23:07:02.126Z,101687.34
2018-08-20T23:09:32.736Z,101685.98
2018-08-20T23:12:02.366Z,101679.60
2018-08-20T23:14:33.995Z,101682.57
2018-08-20T23:17:03.421Z,101685.86
2018-08-20T23:19:32.837Z,101680.83
2018-08-20T23:22:02.282Z,101686.08
2018-08-20T23:24:32.261Z,101686.06
2018-08-20T23:27:01.601Z,101691.35
2018-08-20T23:29:30.925Z,101684.12
2018-08-20T23:32:00.244Z,101689.38
2018-08-20T23:34:29.530Z,101686.70
2018-08-20T23:36:59.029Z,101686.45
2018-08-20T23:39:28.988Z,101691.96
2018-08-20T23:41:58.253Z,101692.45
2018-08-20T23:44:27.544Z,101694.27
2018-08-20T23:46:56.852Z,101696.11
2018-08-20T23:49:26.140Z,101697.91
2018-08-20T23:51:55.661Z,101698.00
2018-08-20T23:54:25.196Z,101702.78
2018-08-20T23:56:54.493Z,101698.37
2018-08-20T23:59:24.101Z,101687.48
